Observation data for Friona on 11/09/2019      Previous  Date       Current Mesonet Observations  Soil Data  Daily Summary Page  Observations in Plain Language
KFAS 090600Z 26008KT 02/02 A3029 RMK A01 T00230017  RH  098%=      5-min Rain = 0
KFAS 090605Z 26008KT 02/02 A3029 RMK A01 T00200015  RH  098%=      5-min Rain = 0
KFAS 090610Z 26008KT 02/01 A3029 RMK A01 T00190014  RH  098%=      5-min Rain = 0
KFAS 090615Z 25008KT 02/01 A3029 RMK A01 T00180013  RH  098%=      5-min Rain = 0
KFAS 090620Z 24008KT 02/02 A3029 RMK A01 T00200016  RH  099%=      5-min Rain = 0
KFAS 090625Z 25008KT 02/02 A3029 RMK A01 T00240021  RH  099%=      5-min Rain = 0
KFAS 090630Z 26008KT 03/03 A3029 RMK A01 T00300027  RH  099%=      5-min Rain = 0
KFAS 090635Z 26008KT 03/03 A3029 RMK A01 T00320029  RH  099%=      5-min Rain = 0
KFAS 090640Z 26008KT 03/03 A3029 RMK A01 T00320028  RH  099%=      5-min Rain = 0
KFAS 090645Z 26008KT 03/03 A3029 RMK A01 T00310026  RH  099%=      5-min Rain = 0
KFAS 090650Z 26008KT 03/03 A3029 RMK A01 T00310026  RH  098%=      5-min Rain = 0
KFAS 090655Z 26008KT 03/03 A3029 RMK A01 T00310026  RH  098%=      5-min Rain = 0
KFAS 090700Z 25009KT 03/02 A3029 RMK A01 T00290024  RH  098%=      5-min Rain = 0
KFAS 090705Z 25009KT 03/02 A3029 RMK A01 T00280023  RH  098%=      5-min Rain = 0
KFAS 090710Z 25009KT 03/02 A3029 RMK A01 T00260022  RH  099%=      5-min Rain = 0
KFAS 090715Z 26009KT 03/02 A3029 RMK A01 T00260022  RH  099%=      5-min Rain = 0
KFAS 090720Z 26008KT 03/02 A3028 RMK A01 T00250021  RH  099%=      5-min Rain = 0
KFAS 090725Z 26009KT 03/02 A3028 RMK A01 T00260022  RH  099%=      5-min Rain = 0
KFAS 090730Z 26009KT 03/02 A3028 RMK A01 T00260022  RH  099%=      5-min Rain = 0
KFAS 090735Z 26009KT 03/02 A3028 RMK A01 T00260022  RH  099%=      5-min Rain = 0
KFAS 090740Z 26009KT 03/02 A3028 RMK A01 T00270023  RH  099%=      5-min Rain = 0
KFAS 090745Z 26008KT 03/02 A3028 RMK A01 T00260023  RH  099%=      5-min Rain = 0
KFAS 090750Z 26008KT 03/02 A3028 RMK A01 T00250021  RH  099%=      5-min Rain = 0
KFAS 090755Z 26007KT 02/02 A3028 RMK A01 T00230019  RH  099%=      5-min Rain = 0
KFAS 090800Z 26007KT 02/02 A3028 RMK A01 T00200017  RH  099%=      5-min Rain = 0
KFAS 090805Z 27007KT 02/02 A3028 RMK A01 T00190016  RH  099%=      5-min Rain = 0
KFAS 090810Z 27008KT 02/02 A3028 RMK A01 T00180015  RH  099%=      5-min Rain = 0
KFAS 090815Z 27007KT 02/02 A3027 RMK A01 T00180015  RH  099%=      5-min Rain = 0
KFAS 090820Z 26008KT 02/01 A3027 RMK A01 T00170014  RH  100%=      5-min Rain = 0
KFAS 090825Z 27009KT 02/02 A3027 RMK A01 T00170015  RH  100%=      5-min Rain = 0
KFAS 090830Z 27008KT 02/02 A3027 RMK A01 T00170015  RH  100%=      5-min Rain = 0
KFAS 090835Z 27007KT 02/01 A3027 RMK A01 T00170014  RH  100%=      5-min Rain = 0
KFAS 090840Z 26007KT 02/01 A3027 RMK A01 T00150013  RH  100%=      5-min Rain = 0
KFAS 090845Z 27007KT 01/01 A3027 RMK A01 T00130011  RH  100%=      5-min Rain = 0
KFAS 090850Z 25007KT 01/01 A3027 RMK A01 T00110009  RH  100%=      5-min Rain = 0
KFAS 090855Z 25007KT 01/01 A3027 RMK A01 T00100008  RH  100%=      5-min Rain = 0
KFAS 090900Z 25007KT 01/01 A3027 RMK A01 T00100008  RH  100%=      5-min Rain = 0
KFAS 090905Z 24008KT 01/01 A3027 RMK A01 T00100008  RH  100%=      5-min Rain = 0
KFAS 090910Z 25008KT 01/01 A3026 RMK A01 T00090008  RH  100%=      5-min Rain = 0
KFAS 090915Z 25008KT 01/01 A3026 RMK A01 T00100008  RH  100%=      5-min Rain = 0
KFAS 090920Z 26007KT 01/01 A3026 RMK A01 T00100008  RH  100%=      5-min Rain = 0
KFAS 090925Z 26006KT 01/01 A3026 RMK A01 T00090007  RH  100%=      5-min Rain = 0
KFAS 090930Z 26007KT 01/01 A3026 RMK A01 T00080006  RH  100%=      5-min Rain = 0
KFAS 090935Z 27006KT 01/01 A3026 RMK A01 T00090007  RH  100%=      5-min Rain = 0
KFAS 090940Z 28006KT 01/01 A3026 RMK A01 T00080007  RH  100%=      5-min Rain = 0
KFAS 090945Z 28006KT 01/00 A3026 RMK A01 T00060004  RH  100%=      5-min Rain = 0
KFAS 090950Z 28006KT 00/00 A3026 RMK A01 T00040003  RH  100%=      5-min Rain = 0
KFAS 090955Z 27006KT 00/00 A3026 RMK A01 T00030002  RH  100%=      5-min Rain = 0
KFAS 091000Z 26005KT 00/00 A3026 RMK A01 T00020001  RH  100%=      5-min Rain = 0
KFAS 091005Z 27005KT 00/00 A3026 RMK A01 T00020000  RH  100%=      5-min Rain = 0.01
KFAS 091010Z 28004KT 00/00 A3026 RMK A01 T000000-2  RH  100%=      5-min Rain = 0
KFAS 091015Z 28005KT M00/M00 A3026 RMK A01 T10011003  RH  100%=      5-min Rain = 0
KFAS 091020Z 28005KT M00/M00 A3026 RMK A01 T10031004  RH  100%=      5-min Rain = 0
KFAS 091025Z 27005KT M00/M01 A3026 RMK A01 T10031005  RH  100%=      5-min Rain = 0
KFAS 091030Z 27005KT M00/M01 A3026 RMK A01 T10041005  RH  100%=      5-min Rain = 0
KFAS 091035Z 27004KT M00/M01 A3026 RMK A01 T10031005  RH  100%=      5-min Rain = 0
KFAS 091040Z 26004KT M00/M01 A3026 RMK A01 T10041005  RH  100%=      5-min Rain = 0
KFAS 091045Z 26005KT M00/M01 A3025 RMK A01 T10041006  RH  100%=      5-min Rain = 0
KFAS 091050Z 26005KT M00/M01 A3025 RMK A01 T10041005  RH  100%=      5-min Rain = 0
KFAS 091055Z 26007KT M00/M01 A3025 RMK A01 T10041005  RH  100%=      5-min Rain = 0
KFAS 091100Z 26006KT M00/M01 A3025 RMK A01 T10041006  RH  100%=      5-min Rain = 0
KFAS 091105Z 27005KT M01/M01 A3025 RMK A01 T10061007  RH  100%=      5-min Rain = 0
KFAS 091110Z 27005KT M01/M01 A3025 RMK A01 T10081009  RH  100%=      5-min Rain = 0
KFAS 091115Z 27005KT M01/M01 A3025 RMK A01 T10091011  RH  100%=      5-min Rain = 0
KFAS 091120Z 26006KT M01/M01 A3025 RMK A01 T10101012  RH  100%=      5-min Rain = 0
KFAS 091125Z 26006KT M01/M01 A3025 RMK A01 T10111012  RH  100%=      5-min Rain = 0
KFAS 091130Z 26006KT M01/M01 A3025 RMK A01 T10111013  RH  100%=      5-min Rain = 0
KFAS 091135Z 26006KT M01/M01 A3025 RMK A01 T10121013  RH  100%=      5-min Rain = 0
KFAS 091140Z 25007KT M01/M01 A3025 RMK A01 T10111013  RH  100%=      5-min Rain = 0
KFAS 091145Z 25007KT M01/M01 A3025 RMK A01 T10111013  RH  100%=      5-min Rain = 0
KFAS 091150Z 25007KT M01/M01 A3025 RMK A01 T10111012  RH  100%=      5-min Rain = 0
KFAS 091155Z 26007KT M01/M01 A3025 RMK A01 T10091010  RH  100%=      5-min Rain = 0
KFAS 091200Z 26008KT M01/M01 A3025 RMK A01 T10071008  RH  100%=      5-min Rain = 0
KFAS 091205Z 26008KT M01/M01 A3025 RMK A01 T10061008  RH  100%=      5-min Rain = 0
KFAS 091210Z 26007KT M01/M01 A3025 RMK A01 T10081009  RH  100%=      5-min Rain = 0
KFAS 091215Z 26007KT M01/M01 A3025 RMK A01 T10091010  RH  100%=      5-min Rain = 0
KFAS 091220Z 26007KT M01/M01 A3025 RMK A01 T10071009  RH  100%=      5-min Rain = 0
KFAS 091225Z 26007KT M01/M01 A3025 RMK A01 T10081009  RH  100%=      5-min Rain = 0
KFAS 091230Z 25008KT M01/M01 A3025 RMK A01 T10111012  RH  100%=      5-min Rain = 0
KFAS 091235Z 25008KT M01/M01 A3025 RMK A01 T10101011  RH  100%=      5-min Rain = 0
KFAS 091240Z 25008KT M01/M01 A3025 RMK A01 T10091011  RH  100%=      5-min Rain = 0
KFAS 091245Z 25008KT M01/M01 A3025 RMK A01 T10091010  RH  100%=      5-min Rain = 0
KFAS 091250Z 25008KT M01/M01 A3025 RMK A01 T10081010  RH  100%=      5-min Rain = 0
KFAS 091255Z 25008KT M01/M01 A3025 RMK A01 T10081009  RH  100%=      5-min Rain = 0
KFAS 091300Z 26007KT M01/M01 A3025 RMK A01 T10061008  RH  100%=      5-min Rain = 0
KFAS 091305Z 26006KT M01/M01 A3025 RMK A01 T10071008  RH  100%=      5-min Rain = 0
KFAS 091310Z 26007KT M01/M01 A3025 RMK A01 T10091011  RH  100%=      5-min Rain = 0
KFAS 091315Z 26007KT M01/M01 A3025 RMK A01 T10121013  RH  100%=      5-min Rain = 0
KFAS 091320Z 25007KT M01/M01 A3025 RMK A01 T10131014  RH  100%=      5-min Rain = 0
KFAS 091325Z 26006KT M01/M01 A3025 RMK A01 T10131014  RH  100%=      5-min Rain = 0
KFAS 091330Z 26006KT M01/M01 A3026 RMK A01 T10121013  RH  100%=      5-min Rain = 0
KFAS 091335Z 25007KT M01/M01 A3026 RMK A01 T10101012  RH  100%=      5-min Rain = 0
KFAS 091340Z 25007KT M01/M01 A3026 RMK A01 T10081010  RH  100%=      5-min Rain = 0
KFAS 091345Z 24007KT M01/M01 A3026 RMK A01 T10071008  RH  100%=      5-min Rain = 0
KFAS 091350Z 24005KT M01/M01 A3026 RMK A01 T10051006  RH  100%=      5-min Rain = 0
KFAS 091355Z 25005KT M00/M00 A3026 RMK A01 T10011003  RH  100%=      5-min Rain = 0
KFAS 091400Z 26004KT 00/00 A3027 RMK A01 T00030001  RH  100%=      5-min Rain = 0
KFAS 091405Z 25006KT 01/00 A3027 RMK A01 T00050003  RH  100%=      5-min Rain = 0
KFAS 091410Z 26007KT 01/00 A3026 RMK A01 T00060004  RH  100%=      5-min Rain = 0
KFAS 091415Z 26005KT 01/01 A3027 RMK A01 T00070006  RH  100%=      5-min Rain = 0
KFAS 091420Z 26005KT 01/01 A3027 RMK A01 T00100008  RH  100%=      5-min Rain = 0
KFAS 091425Z 26005KT 01/01 A3027 RMK A01 T00120010  RH  100%=      5-min Rain = 0
KFAS 091430Z 26006KT 02/01 A3027 RMK A01 T00150012  RH  100%=      5-min Rain = 0
KFAS 091435Z 25005KT 02/02 A3026 RMK A01 T00190016  RH  099%=      5-min Rain = 0
KFAS 091440Z 25006KT 02/02 A3027 RMK A01 T00220019  RH  099%=      5-min Rain = 0
KFAS 091445Z 26005KT 03/02 A3027 RMK A01 T00260021  RH  098%=      5-min Rain = 0
KFAS 091450Z 27004KT 03/03 A3027 RMK A01 T00300025  RH  098%=      5-min Rain = 0
KFAS 091455Z 27004KT 04/03 A3027 RMK A01 T00350029  RH  097%=      5-min Rain = 0
KFAS 091500Z 29003KT 04/03 A3027 RMK A01 T00410034  RH  097%=      5-min Rain = 0
KFAS 091505Z 28005KT 05/04 A3027 RMK A01 T00460038  RH  096%=      5-min Rain = 0
KFAS 091510Z 28005KT 05/04 A3027 RMK A01 T00500040  RH  095%=      5-min Rain = 0
KFAS 091515Z 28005KT 05/04 A3027 RMK A01 T00540044  RH  095%=      5-min Rain = 0
KFAS 091520Z 28005KT 06/05 A3027 RMK A01 T00590048  RH  094%=      5-min Rain = 0
KFAS 091525Z 28004KT 07/05 A3027 RMK A01 T00660053  RH  094%=      5-min Rain = 0
KFAS 091530Z 28005KT 07/06 A3027 RMK A01 T00720058  RH  093%=      5-min Rain = 0
KFAS 091535Z 28005KT 08/06 A3027 RMK A01 T00790063  RH  092%=      5-min Rain = 0
KFAS 091540Z 27004KT 08/07 A3027 RMK A01 T00840066  RH  091%=      5-min Rain = 0
KFAS 091545Z 27004KT 09/07 A3027 RMK A01 T00900069  RH  089%=      5-min Rain = 0
KFAS 091550Z 27004KT 10/07 A3027 RMK A01 T00960073  RH  088%=      5-min Rain = 0
KFAS 091555Z 27004KT 10/08 A3027 RMK A01 T01020076  RH  086%=      5-min Rain = 0
KFAS 091600Z 27004KT 11/08 A3027 RMK A01 T01060077  RH  084%=      5-min Rain = 0
KFAS 091605Z 26003KT 11/08 A3027 RMK A01 T01120080  RH  083%=      5-min Rain = 0
KFAS 091610Z 26003KT 12/08 A3027 RMK A01 T01180081  RH  081%=      5-min Rain = 0
KFAS 091615Z 28003KT 12/08 A3027 RMK A01 T01230083  RH  079%=      5-min Rain = 0
KFAS 091620Z 28002KT 13/08 A3027 RMK A01 T01280082  RH  075%=      5-min Rain = 0
KFAS 091625Z 26003KT 13/08 A3027 RMK A01 T01340082  RH  073%=      5-min Rain = 0
KFAS 091630Z 28002KT 14/08 A3027 RMK A01 T01390080  RH  069%=      5-min Rain = 0
KFAS 091635Z 26003KT 14/08 A3027 RMK A01 T01440078  RH  066%=      5-min Rain = 0
KFAS 091640Z 26004KT 15/07 A3026 RMK A01 T01490071  RH  061%=      5-min Rain = 0
KFAS 091645Z 26003KT 16/07 A3026 RMK A01 T01550069  RH  058%=      5-min Rain = 0
KFAS 091650Z 24003KT 16/07 A3026 RMK A01 T01590067  RH  056%=      5-min Rain = 0
KFAS 091655Z 25003KT 16/07 A3026 RMK A01 T01620065  RH  054%=      5-min Rain = 0
KFAS 091700Z 24003KT 16/06 A3026 RMK A01 T01640057  RH  050%=      5-min Rain = 0
KFAS 091705Z 24004KT 17/04 A3026 RMK A01 T01660043  RH  045%=      5-min Rain = 0
KFAS 091710Z 23005KT 17/04 A3025 RMK A01 T01680035  RH  042%=      5-min Rain = 0
KFAS 091715Z 24005KT 17/03 A3025 RMK A01 T01710027  RH  039%=      5-min Rain = 0
KFAS 091720Z 23005KT 18/02 A3025 RMK A01 T01760023  RH  037%=      5-min Rain = 0
KFAS 091725Z 23005KT 18/03 A3025 RMK A01 T01800034  RH  038%=      5-min Rain = 0
KFAS 091730Z 23004KT 18/04 A3025 RMK A01 T01820036  RH  039%=      5-min Rain = 0
KFAS 091735Z 25004KT 19/02 A3025 RMK A01 T01870024  RH  034%=      5-min Rain = 0
KFAS 091740Z 25004KT 19/02 A3024 RMK A01 T01890020  RH  033%=      5-min Rain = 0
KFAS 091745Z 23004KT 19/02 A3024 RMK A01 T01940017  RH  031%=      5-min Rain = 0
KFAS 091750Z 24005KT 20/01 A3024 RMK A01 T01980008  RH  028%=      5-min Rain = 0
KFAS 091755Z 23004KT 20/01 A3024 RMK A01 T02000011  RH  029%=      5-min Rain = 0
KFAS 091800Z 22005KT 20/03 A3024 RMK A01 T02010026  RH  032%=      5-min Rain = 0
KFAS 091805Z 20006KT 20/06 A3023 RMK A01 T02000055  RH  040%=      5-min Rain = 0
KFAS 091810Z 19006KT 20/07 A3023 RMK A01 T02000066  RH  043%=      5-min Rain = 0
KFAS 091815Z 20005KT 20/07 A3023 RMK A01 T02020065  RH  042%=      5-min Rain = 0
KFAS 091820Z 21005KT 20/07 A3022 RMK A01 T02020065  RH  042%=      5-min Rain = 0
KFAS 091825Z 22006KT 20/06 A3022 RMK A01 T02040063  RH  041%=      5-min Rain = 0
KFAS 091830Z 20006KT 21/05 A3022 RMK A01 T02060051  RH  037%=      5-min Rain = 0
KFAS 091835Z 21007KT 21/04 A3021 RMK A01 T02100040  RH  033%=      5-min Rain = 0
KFAS 091840Z 20008KT 21/02 A3021 RMK A01 T02120022  RH  029%=      5-min Rain = 0
KFAS 091845Z 23008KT 22/00 A3021 RMK A01 T02170004  RH  025%=      5-min Rain = 0
KFAS 091850Z 21009KT 22/00 A302 RMK A01 T02180004  RH  025%=      5-min Rain = 0
KFAS 091855Z 22008G13KT 22/M01 A302 RMK A01 T02191005  RH  023%=      5-min Rain = 0
KFAS 091900Z 22008KT 22/M01 A302 RMK A01 T02191006  RH  022%=      5-min Rain = 0
KFAS 091905Z 23009G14KT 22/M00 A3019 RMK A01 T02211002  RH  023%=      5-min Rain = 0
KFAS 091910Z 24009KT 22/M01 A3019 RMK A01 T02201009  RH  022%=      5-min Rain = 0
KFAS 091915Z 23008KT 22/00 A3019 RMK A01 T02210003  RH  024%=      5-min Rain = 0
KFAS 091920Z 22008KT 22/00 A3019 RMK A01 T02210003  RH  024%=      5-min Rain = 0
KFAS 091925Z 21010KT 22/M01 A3019 RMK A01 T02231007  RH  022%=      5-min Rain = 0
KFAS 091930Z 22009G14KT 23/M01 A3018 RMK A01 T02251009  RH  021%=      5-min Rain = 0
KFAS 091935Z 22010KT 22/M02 A3018 RMK A01 T02241016  RH  020%=      5-min Rain = 0
KFAS 091940Z 21010KT 22/M02 A3018 RMK A01 T02241023  RH  019%=      5-min Rain = 0
KFAS 091945Z 23009KT 23/M02 A3017 RMK A01 T02251022  RH  019%=      5-min Rain = 0
KFAS 091950Z 24010KT 23/M03 A3017 RMK A01 T02271025  RH  019%=      5-min Rain = 0
KFAS 091955Z 23011KT 23/M03 A3017 RMK A01 T02271030  RH  018%=      5-min Rain = 0
KFAS 092000Z 22011KT 23/M03 A3017 RMK A01 T02261034  RH  017%=      5-min Rain = 0
KFAS 092005Z 23011KT 23/M03 A3016 RMK A01 T02251026  RH  019%=      5-min Rain = 0
KFAS 092010Z 24011KT 23/M03 A3016 RMK A01 T02261026  RH  019%=      5-min Rain = 0
KFAS 092015Z 24010G15KT 23/M03 A3016 RMK A01 T02251026  RH  019%=      5-min Rain = 0
KFAS 092020Z 24010G15KT 23/M03 A3016 RMK A01 T02261029  RH  018%=      5-min Rain = 0
KFAS 092025Z 24011KT 23/M02 A3015 RMK A01 T02271024  RH  019%=      5-min Rain = 0
KFAS 092030Z 22011KT 23/M03 A3015 RMK A01 T02251026  RH  019%=      5-min Rain = 0
KFAS 092035Z 22010KT 23/M03 A3015 RMK A01 T02261029  RH  018%=      5-min Rain = 0
KFAS 092040Z 22009KT 23/M03 A3015 RMK A01 T02261030  RH  018%=      5-min Rain = 0
KFAS 092045Z 23010KT 22/M04 A3015 RMK A01 T02241037  RH  017%=      5-min Rain = 0
KFAS 092050Z 22011KT 22/M03 A3015 RMK A01 T02241033  RH  018%=      5-min Rain = 0
KFAS 092055Z 23010KT 22/M03 A3015 RMK A01 T02241031  RH  018%=      5-min Rain = 0
KFAS 092100Z 21011KT 22/M03 A3015 RMK A01 T02241030  RH  018%=      5-min Rain = 0
KFAS 092105Z 22011KT 23/M03 A3015 RMK A01 T02251030  RH  018%=      5-min Rain = 0
KFAS 092110Z 21011KT 22/M03 A3014 RMK A01 T02241034  RH  018%=      5-min Rain = 0
KFAS 092115Z 23011KT 22/M03 A3014 RMK A01 T02231031  RH  018%=      5-min Rain = 0
KFAS 092120Z 23011KT 22/M03 A3014 RMK A01 T02231028  RH  019%=      5-min Rain = 0
KFAS 092125Z 23011KT 22/M03 A3014 RMK A01 T02221027  RH  019%=      5-min Rain = 0
KFAS 092130Z 23010KT 22/M03 A3014 RMK A01 T02211026  RH  019%=      5-min Rain = 0
KFAS 092135Z 22010KT 22/M02 A3014 RMK A01 T02221022  RH  020%=      5-min Rain = 0
KFAS 092140Z 21011KT 22/M02 A3013 RMK A01 T02201024  RH  020%=      5-min Rain = 0
KFAS 092145Z 22010KT 22/M02 A3013 RMK A01 T02191020  RH  020%=      5-min Rain = 0
KFAS 092150Z 21010KT 22/M02 A3013 RMK A01 T02181019  RH  021%=      5-min Rain = 0
KFAS 092155Z 22011KT 22/M01 A3013 RMK A01 T02161014  RH  022%=      5-min Rain = 0
KFAS 092200Z 21010KT 22/M01 A3013 RMK A01 T02161012  RH  022%=      5-min Rain = 0
KFAS 092205Z 22009KT 22/M01 A3013 RMK A01 T02171006  RH  023%=      5-min Rain = 0
KFAS 092210Z 22009KT 22/00 A3013 RMK A01 T02170000  RH  024%=      5-min Rain = 0
KFAS 092215Z 22010KT 22/M00 A3013 RMK A01 T02151003  RH  024%=      5-min Rain = 0
KFAS 092220Z 21010KT 21/M01 A3013 RMK A01 T02131012  RH  022%=      5-min Rain = 0
KFAS 092225Z 21011G16KT 21/M02 A3013 RMK A01 T02121018  RH  021%=      5-min Rain = 0
KFAS 092230Z 21011KT 21/M02 A3012 RMK A01 T02101021  RH  021%=      5-min Rain = 0
KFAS 092235Z 21011KT 21/M03 A3012 RMK A01 T02081026  RH  021%=      5-min Rain = 0
KFAS 092240Z 22011KT 21/M02 A3012 RMK A01 T02051023  RH  022%=      5-min Rain = 0
KFAS 092245Z 21009KT 20/M01 A3012 RMK A01 T02021013  RH  024%=      5-min Rain = 0
KFAS 092250Z 21010KT 20/M01 A3012 RMK A01 T01991012  RH  024%=      5-min Rain = 0
KFAS 092255Z 22011KT 20/M01 A3012 RMK A01 T01971013  RH  025%=      5-min Rain = 0
KFAS 092300Z 22010KT 20/M01 A3012 RMK A01 T01951009  RH  026%=      5-min Rain = 0
KFAS 092305Z 22010KT 19/M01 A3012 RMK A01 T01911008  RH  026%=      5-min Rain = 0
KFAS 092310Z 22010KT 19/M01 A3012 RMK A01 T01871008  RH  027%=      5-min Rain = 0
KFAS 092315Z 21010KT 18/M01 A3012 RMK A01 T01791005  RH  029%=      5-min Rain = 0
KFAS 092320Z 21008KT 17/M00 A3012 RMK A01 T01681001  RH  032%=      5-min Rain = 0
KFAS 092325Z 21008KT 16/00 A3012 RMK A01 T01560001  RH  035%=      5-min Rain = 0
KFAS 092330Z 21008KT 15/00 A3012 RMK A01 T01490002  RH  037%=      5-min Rain = 0
KFAS 092335Z 21008KT 14/00 A3012 RMK A01 T01420003  RH  039%=      5-min Rain = 0
KFAS 092340Z 21009KT 14/00 A3012 RMK A01 T01350002  RH  040%=      5-min Rain = 0
KFAS 092345Z 21009KT 13/00 A3012 RMK A01 T01300001  RH  042%=      5-min Rain = 0
KFAS 092350Z 21009KT 13/00 A3012 RMK A01 T01280001  RH  042%=      5-min Rain = 0
KFAS 092355Z 21009KT 13/00 A3012 RMK A01 T01270001  RH  042%=      5-min Rain = 0
KFAS 100000Z 20008KT 12/00 A3012 RMK A01 T01230002  RH  044%=      5-min Rain = 0
KFAS 100005Z 21008KT 12/00 A3012 RMK A01 T01200004  RH  045%=      5-min Rain = 0
KFAS 100010Z 21008KT 11/00 A3012 RMK A01 T01120003  RH  047%=      5-min Rain = 0
KFAS 100015Z 21008KT 11/00 A3012 RMK A01 T01050002  RH  049%=      5-min Rain = 0
KFAS 100020Z 21008KT 10/00 A3012 RMK A01 T01020003  RH  051%=      5-min Rain = 0
KFAS 100025Z 21009KT 10/01 A3012 RMK A01 T01010005  RH  052%=      5-min Rain = 0
KFAS 100030Z 21009KT 10/01 A3012 RMK A01 T01020007  RH  052%=      5-min Rain = 0
KFAS 100035Z 21008KT 10/01 A3012 RMK A01 T01010008  RH  053%=      5-min Rain = 0
KFAS 100040Z 21008KT 10/01 A3012 RMK A01 T00990007  RH  054%=      5-min Rain = 0
KFAS 100045Z 20007KT 10/01 A3012 RMK A01 T00990008  RH  054%=      5-min Rain = 0
KFAS 100050Z 21008KT 09/01 A3013 RMK A01 T00940008  RH  055%=      5-min Rain = 0
KFAS 100055Z 21007KT 09/01 A3012 RMK A01 T00900006  RH  057%=      5-min Rain = 0
KFAS 100100Z 20008KT 09/01 A3013 RMK A01 T00860006  RH  058%=      5-min Rain = 0
KFAS 100105Z 21009KT 08/01 A3012 RMK A01 T00840006  RH  059%=      5-min Rain = 0
KFAS 100110Z 21010KT 09/01 A3013 RMK A01 T00850006  RH  058%=      5-min Rain = 0
KFAS 100115Z 21010KT 09/01 A3013 RMK A01 T00890007  RH  057%=      5-min Rain = 0
KFAS 100120Z 21010KT 10/01 A3013 RMK A01 T00950008  RH  055%=      5-min Rain = 0
KFAS 100125Z 22009KT 10/01 A3013 RMK A01 T00990009  RH  054%=      5-min Rain = 0
KFAS 100130Z 23011KT 11/01 A3013 RMK A01 T01120006  RH  049%=      5-min Rain = 0
KFAS 100135Z 21009KT 12/01 A3013 RMK A01 T01200006  RH  046%=      5-min Rain = 0
KFAS 100140Z 21008KT 10/01 A3012 RMK A01 T01030007  RH  052%=      5-min Rain = 0
KFAS 100145Z 22009KT 09/01 A3013 RMK A01 T00920008  RH  057%=      5-min Rain = 0
KFAS 100150Z 21008KT 10/01 A3013 RMK A01 T01040008  RH  052%=      5-min Rain = 0
KFAS 100155Z 21008KT 10/01 A3012 RMK A01 T01000008  RH  053%=      5-min Rain = 0
KFAS 100200Z 21009KT 09/01 A3012 RMK A01 T00940007  RH  056%=      5-min Rain = 0
KFAS 100205Z 20010KT 09/01 A3012 RMK A01 T00910008  RH  057%=      5-min Rain = 0
KFAS 100210Z 21010KT 09/01 A3012 RMK A01 T00870007  RH  058%=      5-min Rain = 0
KFAS 100215Z 21010KT 09/01 A3012 RMK A01 T00870006  RH  058%=      5-min Rain = 0
KFAS 100220Z 21009KT 09/01 A3012 RMK A01 T00890005  RH  056%=      5-min Rain = 0
KFAS 100225Z 22009KT 09/01 A3012 RMK A01 T00910005  RH  056%=      5-min Rain = 0
KFAS 100230Z 24007KT 09/00 A3012 RMK A01 T00920004  RH  055%=      5-min Rain = 0
KFAS 100235Z 27008KT 08/00 A3012 RMK A01 T00800003  RH  059%=      5-min Rain = 0
KFAS 100240Z 25008KT 08/00 A3012 RMK A01 T00800004  RH  059%=      5-min Rain = 0
KFAS 100245Z 26007KT 08/00 A3012 RMK A01 T00780004  RH  060%=      5-min Rain = 0
KFAS 100250Z 26007KT 08/00 A3012 RMK A01 T00760004  RH  061%=      5-min Rain = 0
KFAS 100255Z 25008KT 07/00 A3012 RMK A01 T00720002  RH  062%=      5-min Rain = 0
KFAS 100300Z 24008KT 06/00 A3012 RMK A01 T00630001  RH  065%=      5-min Rain = 0
KFAS 100305Z 24007KT 06/00 A3012 RMK A01 T00600002  RH  067%=      5-min Rain = 0
KFAS 100310Z 24008KT 06/00 A3012 RMK A01 T00580002  RH  068%=      5-min Rain = 0
KFAS 100315Z 24008KT 06/00 A3012 RMK A01 T00570002  RH  069%=      5-min Rain = 0
KFAS 100320Z 24008KT 06/00 A3011 RMK A01 T00570003  RH  069%=      5-min Rain = 0
KFAS 100325Z 24007KT 06/01 A3011 RMK A01 T00620005  RH  068%=      5-min Rain = 0
KFAS 100330Z 24007KT 07/01 A3011 RMK A01 T00680007  RH  066%=      5-min Rain = 0
KFAS 100335Z 24007KT 07/01 A3011 RMK A01 T00720010  RH  065%=      5-min Rain = 0
KFAS 100340Z 24009KT 08/01 A3011 RMK A01 T00790013  RH  064%=      5-min Rain = 0
KFAS 100345Z 24009KT 08/02 A3011 RMK A01 T00830015  RH  063%=      5-min Rain = 0
KFAS 100350Z 24009KT 08/02 A3011 RMK A01 T00840015  RH  063%=      5-min Rain = 0
KFAS 100355Z 24010KT 08/02 A3011 RMK A01 T00840015  RH  063%=      5-min Rain = 0
KFAS 100400Z 24010KT 09/02 A3011 RMK A01 T00870016  RH  062%=      5-min Rain = 0
KFAS 100405Z 24010KT 09/02 A3011 RMK A01 T00880017  RH  062%=      5-min Rain = 0
KFAS 100410Z 24010KT 09/02 A3011 RMK A01 T00880018  RH  063%=      5-min Rain = 0
KFAS 100415Z 24010KT 09/02 A3011 RMK A01 T00870019  RH  063%=      5-min Rain = 0
KFAS 100420Z 24010KT 09/02 A3011 RMK A01 T00870020  RH  064%=      5-min Rain = 0
KFAS 100425Z 23010KT 09/02 A3011 RMK A01 T00890022  RH  064%=      5-min Rain = 0
KFAS 100430Z 23010KT 09/02 A3011 RMK A01 T00900023  RH  064%=      5-min Rain = 0
KFAS 100435Z 24010KT 09/02 A3011 RMK A01 T00900024  RH  064%=      5-min Rain = 0
KFAS 100440Z 24010KT 09/03 A3011 RMK A01 T00900025  RH  065%=      5-min Rain = 0
KFAS 100445Z 25009KT 09/03 A3011 RMK A01 T00890026  RH  066%=      5-min Rain = 0
KFAS 100450Z 25009KT 09/03 A3011 RMK A01 T00870027  RH  067%=      5-min Rain = 0
KFAS 100455Z 25007KT 08/02 A3011 RMK A01 T00840023  RH  067%=      5-min Rain = 0
KFAS 100500Z 26007KT 07/02 A3011 RMK A01 T00740020  RH  070%=      5-min Rain = 0
KFAS 100505Z 26006KT 07/02 A3011 RMK A01 T00680015  RH  070%=      5-min Rain = 0
KFAS 100510Z 26007KT 05/01 A3011 RMK A01 T00530009  RH  074%=      5-min Rain = 0
KFAS 100515Z 26007KT 05/01 A3011 RMK A01 T00500012  RH  078%=      5-min Rain = 0
KFAS 100520Z 26007KT 05/01 A301 RMK A01 T00520014  RH  078%=      5-min Rain = 0
KFAS 100525Z 26006KT 05/01 A301 RMK A01 T00500013  RH  078%=      5-min Rain = 0
KFAS 100530Z 26007KT 05/01 A301 RMK A01 T00480013  RH  079%=      5-min Rain = 0
KFAS 100535Z 26006KT 05/01 A301 RMK A01 T00480014  RH  080%=      5-min Rain = 0
KFAS 100540Z 26006KT 05/01 A301 RMK A01 T00470013  RH  080%=      5-min Rain = 0
KFAS 100545Z 26005KT 05/01 A301 RMK A01 T00460013  RH  080%=      5-min Rain = 0
KFAS 100550Z 25005KT 05/01 A301 RMK A01 T00450013  RH  081%=      5-min Rain = 0
KFAS 100555Z 24004KT 04/01 A301 RMK A01 T00440012  RH  081%=      5-min Rain = 0

Page generated in 0.0131 seconds.